Orange8 — JL6278 — position and weather

sailwx.info

Track history (hours):
 
Tides and Currents Weather Stations Pressure Air Temp Water Temp Dewpoint Dewpoint Depression Visibility Wind Speed Wind Dir Waves Ship Positions

Orange8

Last reported at 2016-Jul-24 14:33 UTC. Time now 2016-Jul-25 14:08 UTC.
Position N 34°37' E 134°55'.

Length 164 m; draft 5 m.

Type: Passenger vessel. MMSI: 431501603.

Date/timePositionNaut miles runAvg speedWind from/ knotsBaromVisibWave heightAir tempDewpointWater temp
2016-Jul-24 14:33N 34°37' E 134°55'2019.5
2016-Jul-24 13:33N 34°36' E 135°18'6 6.2
2016-Jul-24 12:32N 34°37' E 135°26'0 0.0
2016-Jul-24 11:32N 34°37' E 135°26'0 0.0
2016-Jul-24 10:32N 34°37' E 135°26'0 0.0
2016-Jul-24 09:32N 34°37' E 135°26'0 0.0
2016-Jul-24 08:32N 34°37' E 135°26'0 0.0
2016-Jul-24 07:32N 34°37' E 135°26'0 0.0
2016-Jul-24 06:32N 34°37' E 135°26'0 0.0
2016-Jul-24 05:32N 34°37' E 135°26'0 0.0
2016-Jul-24 04:32N 34°37' E 135°26'0 0.0
2016-Jul-24 03:32N 34°37' E 135°26'0 0.0
2016-Jul-24 02:32N 34°37' E 135°26'0 0.0
2016-Jul-24 01:32N 34°37' E 135°26'0 0.0
2016-Jul-24 00:32N 34°37' E 135°26'0 0.0
2016-Jul-23 23:26N 34°37' E 135°26'0 0.0
2016-Jul-23 22:32N 34°37' E 135°26'0 0.0
2016-Jul-23 21:32N 34°37' E 135°26'5 5.2
2016-Jul-23 20:33N 34°36' E 135°20'1717.1
2016-Jul-23 19:33N 34°37' E 134°59'2 0.1
2016-Jul-22 14:33N 34°37' E 134°57'1818.4
2016-Jul-22 13:33N 34°37' E 135°19'6 5.2
2016-Jul-22 12:28N 34°37' E 135°26'0 0.0
2016-Jul-22 11:28N 34°37' E 135°26'0 0.0
2016-Jul-22 10:28N 34°37' E 135°26'0 0.0
2016-Jul-22 09:28N 34°37' E 135°26'0 0.0
2016-Jul-22 08:28N 34°37' E 135°26'0 0.0
2016-Jul-22 07:28N 34°37' E 135°26'0 0.0
2016-Jul-22 04:28N 34°37' E 135°26'0 0.0
2016-Jul-22 03:28N 34°37' E 135°26'0 0.0
2016-Jul-22 02:22N 34°37' E 135°26'0 0.0
2016-Jul-22 01:28N 34°37' E 135°26'0 0.0
2016-Jul-22 00:28N 34°37' E 135°26'0 0.0
2016-Jul-21 23:28N 34°37' E 135°26'0 0.0
2016-Jul-21 22:28N 34°37' E 135°26'0 0.0
2016-Jul-21 21:22N 34°37' E 135°26'5 6.0
2016-Jul-21 20:34N 34°36' E 135°20'1716.3
2016-Jul-21 19:33N 34°37' E 135°00'3 0.1
2016-Jul-20 14:34N 34°37' E 134°56'1818.3
2016-Jul-20 13:34N 34°37' E 135°19'6 5.8
2016-Jul-20 12:31N 34°37' E 135°26'0 0.0
2016-Jul-20 11:31N 34°37' E 135°26'0 0.0
2016-Jul-20 10:26N 34°37' E 135°26'0 0.0
2016-Jul-20 09:31N 34°37' E 135°26'0 0.0
2016-Jul-20 08:25N 34°37' E 135°26'0 0.0
2016-Jul-20 07:32N 34°37' E 135°26'0 0.0
2016-Jul-20 06:32N 34°37' E 135°26'0 0.0
2016-Jul-20 05:25N 34°37' E 135°26'0 0.0
2016-Jul-20 04:31N 34°37' E 135°26'0 0.0
2016-Jul-20 03:31N 34°37' E 135°26'0 0.0
2016-Jul-20 02:31N 34°37' E 135°26'0 0.0
2016-Jul-20 01:32N 34°37' E 135°26'0 0.0
2016-Jul-20 00:31N 34°37' E 135°26'0 0.0
2016-Jul-19 23:31N 34°37' E 135°26'0 0.0
2016-Jul-19 22:31N 34°37' E 135°26'0 0.0
2016-Jul-19 21:31N 34°37' E 135°26'5 5.0
2016-Jul-19 20:33N 34°36' E 135°20'1717.2
2016-Jul-19 19:33N 34°37' E 134°59'2 0.1
2016-Jul-18 14:29N 34°37' E 134°57'1718.6
2016-Jul-18 13:33N 34°36' E 135°18'6 6.0
2016-Jul-18 12:30N 34°37' E 135°26'0 0.0
2016-Jul-18 11:24N 34°37' E 135°26'0 0.0
2016-Jul-18 10:30N 34°37' E 135°26'0 0.0
2016-Jul-18 09:24N 34°37' E 135°26'0 0.0
2016-Jul-18 08:30N 34°37' E 135°26'0 0.0
2016-Jul-18 07:24N 34°37' E 135°26'0 0.0
2016-Jul-18 06:24N 34°37' E 135°26'0 0.0
2016-Jul-18 04:30N 34°37' E 135°26'0 0.0
2016-Jul-18 03:30N 34°37' E 135°26'0 0.0
2016-Jul-18 02:30N 34°37' E 135°26'0 0.0
2016-Jul-18 01:30N 34°37' E 135°26'0 0.0
2016-Jul-18 00:12N 34°37' E 135°26'0 0.0
2016-Jul-17 23:30N 34°37' E 135°26'0 0.0
2016-Jul-17 22:24N 34°37' E 135°26'0 0.0
2016-Jul-17 21:30N 34°37' E 135°26'4 4.7
2016-Jul-17 20:34N 34°36' E 135°21'1615.5
2016-Jul-17 19:33N 34°37' E 135°02'4 0.1
2016-Jul-16 14:32N 34°37' E 134°57'1717.9
2016-Jul-16 13:33N 34°37' E 135°18'7 6.0
2016-Jul-16 12:28N 34°37' E 135°26'0 0.0
2016-Jul-16 11:28N 34°37' E 135°26'0 0.0
2016-Jul-16 10:28N 34°37' E 135°26'0 0.0
2016-Jul-16 09:22N 34°37' E 135°26'0 0.0
2016-Jul-16 08:28N 34°37' E 135°26'0 0.0
2016-Jul-16 07:28N 34°37' E 135°26'0 0.0
2016-Jul-16 06:22N 34°37' E 135°26'0 0.0
2016-Jul-16 04:28N 34°37' E 135°26'0 0.0
2016-Jul-16 03:28N 34°37' E 135°26'0 0.0
2016-Jul-16 02:28N 34°37' E 135°26'0 0.0
2016-Jul-16 01:28N 34°37' E 135°26'0 0.0
2016-Jul-16 00:28N 34°37' E 135°26'0 0.0
2016-Jul-15 23:28N 34°37' E 135°26'0 0.0
2016-Jul-15 22:22N 34°37' E 135°26'0 0.0
2016-Jul-15 21:28N 34°37' E 135°26'5 5.5
2016-Jul-15 20:33N 34°36' E 135°20'1414.3
2016-Jul-15 19:33N 34°36' E 135°03'  
Track history (hours):
 
Tides and Currents Weather Stations Pressure Air Temp Water Temp Dewpoint Dewpoint Depression Visibility Wind Speed Wind Dir Waves Ship Positions

Orange8

Last reported at 2016-Jul-24 14:33 UTC. Time now 2016-Jul-25 14:08 UTC.
Position N 34°37' E 134°55'.

Length 164 m; draft 5 m.

Type: Passenger vessel. MMSI: 431501603.

Date/timePositionNaut miles runAvg speedWind from/ knotsBaromVisibWave heightAir tempDewpointWater temp
2016-Jul-24 14:33N 34°37' E 134°55'2019.5
2016-Jul-24 13:33N 34°36' E 135°18'6 6.2
2016-Jul-24 12:32N 34°37' E 135°26'0 0.0
2016-Jul-24 11:32N 34°37' E 135°26'0 0.0
2016-Jul-24 10:32N 34°37' E 135°26'0 0.0
2016-Jul-24 09:32N 34°37' E 135°26'0 0.0
2016-Jul-24 08:32N 34°37' E 135°26'0 0.0
2016-Jul-24 07:32N 34°37' E 135°26'0 0.0
2016-Jul-24 06:32N 34°37' E 135°26'0 0.0
2016-Jul-24 05:32N 34°37' E 135°26'0 0.0
2016-Jul-24 04:32N 34°37' E 135°26'0 0.0
2016-Jul-24 03:32N 34°37' E 135°26'0 0.0
2016-Jul-24 02:32N 34°37' E 135°26'0 0.0
2016-Jul-24 01:32N 34°37' E 135°26'0 0.0
2016-Jul-24 00:32N 34°37' E 135°26'0 0.0
2016-Jul-23 23:26N 34°37' E 135°26'0 0.0
2016-Jul-23 22:32N 34°37' E 135°26'0 0.0
2016-Jul-23 21:32N 34°37' E 135°26'5 5.2
2016-Jul-23 20:33N 34°36' E 135°20'1717.1
2016-Jul-23 19:33N 34°37' E 134°59'2 0.1
2016-Jul-22 14:33N 34°37' E 134°57'1818.4
2016-Jul-22 13:33N 34°37' E 135°19'6 5.2
2016-Jul-22 12:28N 34°37' E 135°26'0 0.0
2016-Jul-22 11:28N 34°37' E 135°26'0 0.0
2016-Jul-22 10:28N 34°37' E 135°26'0 0.0
2016-Jul-22 09:28N 34°37' E 135°26'0 0.0
2016-Jul-22 08:28N 34°37' E 135°26'0 0.0
2016-Jul-22 07:28N 34°37' E 135°26'0 0.0
2016-Jul-22 04:28N 34°37' E 135°26'0 0.0
2016-Jul-22 03:28N 34°37' E 135°26'0 0.0
2016-Jul-22 02:22N 34°37' E 135°26'0 0.0
2016-Jul-22 01:28N 34°37' E 135°26'0 0.0
2016-Jul-22 00:28N 34°37' E 135°26'0 0.0
2016-Jul-21 23:28N 34°37' E 135°26'0 0.0
2016-Jul-21 22:28N 34°37' E 135°26'0 0.0
2016-Jul-21 21:22N 34°37' E 135°26'5 6.0
2016-Jul-21 20:34N 34°36' E 135°20'1716.3
2016-Jul-21 19:33N 34°37' E 135°00'3 0.1
2016-Jul-20 14:34N 34°37' E 134°56'1818.3
2016-Jul-20 13:34N 34°37' E 135°19'6 5.8
2016-Jul-20 12:31N 34°37' E 135°26'0 0.0
2016-Jul-20 11:31N 34°37' E 135°26'0 0.0
2016-Jul-20 10:26N 34°37' E 135°26'0 0.0
2016-Jul-20 09:31N 34°37' E 135°26'0 0.0
2016-Jul-20 08:25N 34°37' E 135°26'0 0.0
2016-Jul-20 07:32N 34°37' E 135°26'0 0.0
2016-Jul-20 06:32N 34°37' E 135°26'0 0.0
2016-Jul-20 05:25N 34°37' E 135°26'0 0.0
2016-Jul-20 04:31N 34°37' E 135°26'0 0.0
2016-Jul-20 03:31N 34°37' E 135°26'0 0.0
2016-Jul-20 02:31N 34°37' E 135°26'0 0.0
2016-Jul-20 01:32N 34°37' E 135°26'0 0.0
2016-Jul-20 00:31N 34°37' E 135°26'0 0.0
2016-Jul-19 23:31N 34°37' E 135°26'0 0.0
2016-Jul-19 22:31N 34°37' E 135°26'0 0.0
2016-Jul-19 21:31N 34°37' E 135°26'5 5.0
2016-Jul-19 20:33N 34°36' E 135°20'1717.2
2016-Jul-19 19:33N 34°37' E 134°59'2 0.1
2016-Jul-18 14:29N 34°37' E 134°57'1718.6
2016-Jul-18 13:33N 34°36' E 135°18'6 6.0
2016-Jul-18 12:30N 34°37' E 135°26'0 0.0
2016-Jul-18 11:24N 34°37' E 135°26'0 0.0
2016-Jul-18 10:30N 34°37' E 135°26'0 0.0
2016-Jul-18 09:24N 34°37' E 135°26'0 0.0
2016-Jul-18 08:30N 34°37' E 135°26'0 0.0
2016-Jul-18 07:24N 34°37' E 135°26'0 0.0
2016-Jul-18 06:24N 34°37' E 135°26'0 0.0
2016-Jul-18 04:30N 34°37' E 135°26'0 0.0
2016-Jul-18 03:30N 34°37' E 135°26'0 0.0
2016-Jul-18 02:30N 34°37' E 135°26'0 0.0
2016-Jul-18 01:30N 34°37' E 135°26'0 0.0
2016-Jul-18 00:12N 34°37' E 135°26'0 0.0
2016-Jul-17 23:30N 34°37' E 135°26'0 0.0
2016-Jul-17 22:24N 34°37' E 135°26'0 0.0
2016-Jul-17 21:30N 34°37' E 135°26'4 4.7
2016-Jul-17 20:34N 34°36' E 135°21'1615.5
2016-Jul-17 19:33N 34°37' E 135°02'4 0.1
2016-Jul-16 14:32N 34°37' E 134°57'1717.9
2016-Jul-16 13:33N 34°37' E 135°18'7 6.0
2016-Jul-16 12:28N 34°37' E 135°26'0 0.0
2016-Jul-16 11:28N 34°37' E 135°26'0 0.0
2016-Jul-16 10:28N 34°37' E 135°26'0 0.0
2016-Jul-16 09:22N 34°37' E 135°26'0 0.0
2016-Jul-16 08:28N 34°37' E 135°26'0 0.0
2016-Jul-16 07:28N 34°37' E 135°26'0 0.0
2016-Jul-16 06:22N 34°37' E 135°26'0 0.0
2016-Jul-16 04:28N 34°37' E 135°26'0 0.0
2016-Jul-16 03:28N 34°37' E 135°26'0 0.0
2016-Jul-16 02:28N 34°37' E 135°26'0 0.0
2016-Jul-16 01:28N 34°37' E 135°26'0 0.0
2016-Jul-16 00:28N 34°37' E 135°26'0 0.0
2016-Jul-15 23:28N 34°37' E 135°26'0 0.0
2016-Jul-15 22:22N 34°37' E 135°26'0 0.0
2016-Jul-15 21:28N 34°37' E 135°26'5 5.5
2016-Jul-15 20:33N 34°36' E 135°20'1414.3
2016-Jul-15 19:33N 34°36' E 135°03'  

Dump ship's entire track history